Time;durP1;ratioP1;P1;durP2;ratioP2;P2;SDS_P1;SDS_P2;PMS_P1;PMS_P2;Temp;Humidity;BMP_temperature;BMP_pressure;BME280_temperature;BME280_humidity;BME280_pressure;Samples;Min_cycle;Max_cycle;Signal;HPM_P1;HPM_P2
2022/09/18 00:01:54;;;;;;;11.60;1.80;;;;;;;;;;5110037;28;20049;-76
2022/09/18 00:04:20;;;;;;;15.70;2.30;;;;;;;;;;5110617;28;20512;-76
2022/09/18 00:06:46;;;;;;;7.78;1.52;;;;;;;;;;5103621;28;20044;-76
2022/09/18 00:09:14;;;;;;;15.85;1.88;;;;;;;;;;5099675;28;20039;-76
2022/09/18 00:11:41;;;;;;;12.93;1.73;;;;;;;;;;5108439;28;20079;-76
2022/09/18 00:14:08;;;;;;;14.40;1.80;;;;;;;;;;5105992;28;20082;-77
2022/09/18 00:16:35;;;;;;;12.90;1.88;;;;;;;;;;5106973;28;20088;-76
2022/09/18 00:19:01;;;;;;;11.07;1.45;;;;;;;;;;5110410;28;20043;-76
2022/09/18 00:21:28;;;;;;;15.25;2.28;;;;;;;;;;5103160;28;20047;-76
2022/09/18 00:23:55;;;;;;;15.57;1.88;;;;;;;;;;5110313;28;20122;-76
2022/09/18 00:26:21;;;;;;;17.13;2.53;;;;;;;;;;5084409;28;20047;-76
2022/09/18 00:28:47;;;;;;;9.07;1.50;;;;;;;;;;5104964;28;20036;-76
2022/09/18 00:31:18;;;;;;;13.57;2.03;;;;;;;;;;5103707;28;20158;-76
2022/09/18 00:33:44;;;;;;;13.35;1.40;;;;;;;;;;5098595;28;20067;-77
2022/09/18 00:36:12;;;;;;;12.50;1.60;;;;;;;;;;5105564;28;20047;-75
2022/09/18 00:38:38;;;;;;;12.00;1.63;;;;;;;;;;5105963;28;20128;-75
2022/09/18 00:41:06;;;;;;;15.02;2.20;;;;;;;;;;5104881;28;20502;-76
2022/09/18 00:43:33;;;;;;;11.93;1.42;;;;;;;;;;5105958;28;20047;-75
2022/09/18 00:46:18;;;;;;;9.93;1.63;;;;;;;;;;5105050;28;20047;-76
2022/09/18 00:48:44;;;;;;;10.65;1.65;;;;;;;;;;5105163;28;20394;-76
2022/09/18 00:51:11;;;;;;;11.68;1.60;;;;;;;;;;5103881;28;20055;-76
2022/09/18 00:53:39;;;;;;;11.25;1.40;;;;;;;;;;5120943;28;20039;-75
2022/09/18 00:56:06;;;;;;;12.57;1.80;;;;;;;;;;5100500;28;20443;-76
2022/09/18 00:58:33;;;;;;;13.30;1.73;;;;;;;;;;5109039;28;20040;-76
2022/09/18 01:01:00;;;;;;;15.73;2.35;;;;;;;;;;5102343;28;20047;-76
2022/09/18 01:03:26;;;;;;;13.93;1.70;;;;;;;;;;5111544;28;20062;-76
2022/09/18 01:05:57;;;;;;;10.93;1.33;;;;;;;;;;5105189;28;20036;-76
2022/09/18 01:08:28;;;;;;;16.40;2.10;;;;;;;;;;5095880;28;20131;-76
2022/09/18 01:10:57;;;;;;;9.63;1.80;;;;;;;;;;5103434;28;20063;-76
2022/09/18 01:13:29;;;;;;;15.23;1.95;;;;;;;;;;5103716;28;20048;-76
2022/09/18 01:15:59;;;;;;;9.65;1.85;;;;;;;;;;5110154;28;20079;-75
2022/09/18 01:18:36;;;;;;;11.57;1.85;;;;;;;;;;5110908;28;20048;-76
2022/09/18 01:21:02;;;;;;;16.45;1.85;;;;;;;;;;5098017;28;20119;-76
2022/09/18 01:23:31;;;;;;;13.43;2.00;;;;;;;;;;5106736;28;20078;-75
2022/09/18 01:26:03;;;;;;;10.15;1.70;;;;;;;;;;5108100;28;20050;-76
2022/09/18 01:28:48;;;;;;;10.90;1.95;;;;;;;;;;5112162;28;20051;-77
2022/09/18 01:31:18;;;;;;;11.02;1.60;;;;;;;;;;5116755;28;20035;-75
2022/09/18 01:33:51;;;;;;;14.77;1.95;;;;;;;;;;5114686;28;20400;-76
2022/09/18 01:36:18;;;;;;;14.07;2.13;;;;;;;;;;5115037;28;20036;-76
2022/09/18 01:38:44;;;;;;;16.55;1.98;;;;;;;;;;5108253;28;20074;-76
2022/09/18 01:41:36;;;;;;;15.63;1.80;;;;;;;;;;5103265;28;20036;-76
2022/09/18 01:44:05;;;;;;;15.23;2.28;;;;;;;;;;5115469;28;20151;-76
2022/09/18 01:46:32;;;;;;;12.50;2.03;;;;;;;;;;5115496;28;20074;-75
2022/09/18 01:49:06;;;;;;;14.85;2.10;;;;;;;;;;5115919;28;20045;-76
2022/09/18 01:51:39;;;;;;;13.82;1.73;;;;;;;;;;5101781;28;20047;-76
2022/09/18 01:54:09;;;;;;;13.68;2.15;;;;;;;;;;5116262;28;20105;-76
2022/09/18 01:56:37;;;;;;;17.33;1.95;;;;;;;;;;5115606;28;20039;-76
2022/09/18 01:59:07;;;;;;;11.95;1.70;;;;;;;;;;5108924;28;20071;-76
2022/09/18 02:01:35;;;;;;;17.20;2.15;;;;;;;;;;5097626;28;20040;-76
2022/09/18 02:04:04;;;;;;;13.02;2.10;;;;;;;;;;5113928;28;20071;-76
2022/09/18 02:06:33;;;;;;;12.23;1.90;;;;;;;;;;5114273;28;20040;-76
2022/09/18 02:09:00;;;;;;;13.70;2.03;;;;;;;;;;5114562;28;20087;-76
2022/09/18 02:11:26;;;;;;;16.17;1.85;;;;;;;;;;5115620;28;20043;-76
2022/09/18 02:13:59;;;;;;;16.58;2.20;;;;;;;;;;5113615;28;20052;-76
2022/09/18 02:16:25;;;;;;;15.13;1.92;;;;;;;;;;5107988;28;20040;-75
2022/09/18 02:18:53;;;;;;;12.25;2.00;;;;;;;;;;5096576;28;20043;-75
2022/09/18 02:21:23;;;;;;;15.30;1.95;;;;;;;;;;5112117;28;20480;-76
2022/09/18 02:23:50;;;;;;;9.57;1.60;;;;;;;;;;5106238;28;20071;-76
2022/09/18 02:26:17;;;;;;;16.40;2.00;;;;;;;;;;5103023;28;20096;-76
2022/09/18 02:28:44;;;;;;;10.60;1.67;;;;;;;;;;5112203;28;20445;-76
2022/09/18 02:31:11;;;;;;;8.82;1.88;;;;;;;;;;5115152;28;20043;-76
2022/09/18 02:33:38;;;;;;;13.85;1.77;;;;;;;;;;5108489;28;20122;-76
2022/09/18 02:36:22;;;;;;;18.00;2.20;;;;;;;;;;5115737;28;20039;-76
2022/09/18 02:38:55;;;;;;;12.95;1.95;;;;;;;;;;5104456;28;20048;-76
2022/09/18 02:41:37;;;;;;;13.60;1.75;;;;;;;;;;5114568;28;20051;-76
2022/09/18 02:44:09;;;;;;;17.20;1.77;;;;;;;;;;5115368;28;20383;-76
2022/09/18 02:46:57;;;;;;;12.27;1.77;;;;;;;;;;5115059;28;20099;-76
2022/09/18 02:49:33;;;;;;;17.25;2.28;;;;;;;;;;5108717;27;20070;-76
2022/09/18 02:52:03;;;;;;;15.77;1.83;;;;;;;;;;5115254;28;20448;-76
2022/09/18 02:54:32;;;;;;;15.27;1.70;;;;;;;;;;5115062;28;20043;-76
2022/09/18 02:57:09;;;;;;;10.80;1.58;;;;;;;;;;5114411;28;20379;-76
2022/09/18 02:59:41;;;;;;;12.75;1.67;;;;;;;;;;5115310;28;20061;-76
2022/09/18 03:02:07;;;;;;;16.38;2.38;;;;;;;;;;5113812;28;20502;-76
2022/09/18 03:04:33;;;;;;;17.40;2.25;;;;;;;;;;5115010;28;20052;-76
2022/09/18 03:07:00;;;;;;;12.90;1.92;;;;;;;;;;5094793;28;20039;-76
2022/09/18 03:09:26;;;;;;;15.90;1.88;;;;;;;;;;5111067;28;20092;-76
2022/09/18 03:11:52;;;;;;;13.25;2.33;;;;;;;;;;5113166;28;20054;-76
2022/09/18 03:14:19;;;;;;;15.20;1.75;;;;;;;;;;5114124;28;20060;-76
2022/09/18 03:16:45;;;;;;;10.20;1.63;;;;;;;;;;5114876;28;20137;-76
2022/09/18 03:19:13;;;;;;;18.25;1.85;;;;;;;;;;5110105;28;20402;-76
2022/09/18 03:21:39;;;;;;;14.20;1.70;;;;;;;;;;5110135;28;20482;-76
2022/09/18 03:24:05;;;;;;;11.85;1.85;;;;;;;;;;5113351;28;20425;-76
2022/09/18 03:26:31;;;;;;;16.52;2.17;;;;;;;;;;5110717;28;20054;-76
2022/09/18 03:28:58;;;;;;;12.30;1.92;;;;;;;;;;5114091;28;20044;-76
2022/09/18 03:31:24;;;;;;;14.55;1.60;;;;;;;;;;5115288;28;20039;-76
2022/09/18 03:33:50;;;;;;;13.90;2.03;;;;;;;;;;5112506;28;20044;-76
2022/09/18 03:36:16;;;;;;;15.63;1.80;;;;;;;;;;5113634;28;20059;-76
2022/09/18 03:38:42;;;;;;;12.43;1.73;;;;;;;;;;5114550;28;20055;-76
2022/09/18 03:41:08;;;;;;;15.32;1.80;;;;;;;;;;5113978;28;20032;-76
2022/09/18 03:43:34;;;;;;;13.80;1.75;;;;;;;;;;5113513;28;20386;-76
2022/09/18 03:46:00;;;;;;;12.30;1.77;;;;;;;;;;5114687;28;20486;-76
2022/09/18 03:48:27;;;;;;;10.55;1.50;;;;;;;;;;5107896;28;20569;-76
2022/09/18 03:50:53;;;;;;;12.60;1.65;;;;;;;;;;5113121;27;20039;-77
2022/09/18 03:53:19;;;;;;;11.15;1.63;;;;;;;;;;5113866;28;20039;-76
2022/09/18 03:55:45;;;;;;;12.30;1.67;;;;;;;;;;5113217;28;20503;-76
2022/09/18 03:58:12;;;;;;;13.25;1.80;;;;;;;;;;5103529;28;20406;-76
2022/09/18 04:00:38;;;;;;;12.10;1.77;;;;;;;;;;5103553;28;20079;-76
2022/09/18 04:03:04;;;;;;;13.55;1.70;;;;;;;;;;5111852;28;20043;-76
2022/09/18 04:05:30;;;;;;;11.85;1.50;;;;;;;;;;5109724;28;20050;-76
2022/09/18 04:07:56;;;;;;;12.93;1.80;;;;;;;;;;5109810;28;20478;-76
2022/09/18 04:10:22;;;;;;;15.70;1.67;;;;;;;;;;5102379;28;20040;-76
2022/09/18 04:12:48;;;;;;;11.77;1.63;;;;;;;;;;5110081;28;20382;-76
2022/09/18 04:15:15;;;;;;;11.93;1.52;;;;;;;;;;5113307;28;20043;-76
2022/09/18 04:17:41;;;;;;;11.73;1.48;;;;;;;;;;5108863;28;20471;-76
2022/09/18 04:20:08;;;;;;;9.77;1.67;;;;;;;;;;5106095;28;20039;-75
2022/09/18 04:22:34;;;;;;;12.90;1.65;;;;;;;;;;5112707;28;20040;-76
2022/09/18 04:25:00;;;;;;;9.88;1.77;;;;;;;;;;5113667;28;20040;-76
2022/09/18 04:27:26;;;;;;;14.52;1.98;;;;;;;;;;5109753;28;20047;-76
2022/09/18 04:29:52;;;;;;;12.80;1.52;;;;;;;;;;5105640;28;20096;-76
2022/09/18 04:32:18;;;;;;;14.65;1.55;;;;;;;;;;5099213;28;20101;-76
2022/09/18 04:34:44;;;;;;;9.95;1.30;;;;;;;;;;5113578;28;20060;-76
2022/09/18 04:37:10;;;;;;;11.75;1.40;;;;;;;;;;5096918;28;20490;-76
2022/09/18 04:39:37;;;;;;;12.45;2.10;;;;;;;;;;5112643;28;20043;-76
2022/09/18 04:42:03;;;;;;;7.40;1.30;;;;;;;;;;5104410;28;20452;-76
2022/09/18 04:44:29;;;;;;;12.25;1.70;;;;;;;;;;5094804;28;20048;-76
2022/09/18 04:46:55;;;;;;;15.30;1.45;;;;;;;;;;5112091;28;20040;-76
2022/09/18 04:49:21;;;;;;;11.98;1.65;;;;;;;;;;5104591;28;20050;-76
2022/09/18 04:51:47;;;;;;;12.32;1.50;;;;;;;;;;5110490;28;20563;-76
2022/09/18 04:54:13;;;;;;;11.38;1.38;;;;;;;;;;5116243;28;20086;-76
2022/09/18 04:56:40;;;;;;;14.52;1.80;;;;;;;;;;5115505;28;20044;-76
2022/09/18 04:59:06;;;;;;;11.40;1.40;;;;;;;;;;5115180;28;20086;-76
2022/09/18 05:01:32;;;;;;;13.77;1.60;;;;;;;;;;5108449;28;20040;-76
2022/09/18 05:03:58;;;;;;;10.88;1.73;;;;;;;;;;5107782;28;20128;-76
2022/09/18 05:06:25;;;;;;;9.45;1.63;;;;;;;;;;5117579;28;20055;-76
2022/09/18 05:08:51;;;;;;;13.30;1.70;;;;;;;;;;5111505;28;20486;-76
2022/09/18 05:11:17;;;;;;;8.75;1.40;;;;;;;;;;5098097;28;20064;-76
2022/09/18 05:13:43;;;;;;;11.13;1.35;;;;;;;;;;5107736;28;20051;-75
2022/09/18 05:16:09;;;;;;;12.43;1.88;;;;;;;;;;5114163;28;20051;-76
2022/09/18 05:18:35;;;;;;;13.27;1.55;;;;;;;;;;5111476;28;20461;-75
2022/09/18 05:21:02;;;;;;;11.45;1.50;;;;;;;;;;5114534;28;20056;-76
2022/09/18 05:23:28;;;;;;;11.02;1.80;;;;;;;;;;5110139;28;20505;-76
2022/09/18 05:25:54;;;;;;;12.07;1.70;;;;;;;;;;5114311;28;20489;-76
2022/09/18 05:28:20;;;;;;;11.52;1.60;;;;;;;;;;5114271;28;20455;-76
2022/09/18 05:30:46;;;;;;;12.35;1.25;;;;;;;;;;5098456;28;20127;-75
2022/09/18 05:33:12;;;;;;;9.60;1.48;;;;;;;;;;5110942;28;20044;-76
2022/09/18 05:35:38;;;;;;;11.68;1.50;;;;;;;;;;5114812;28;20043;-76
2022/09/18 05:38:05;;;;;;;11.35;1.55;;;;;;;;;;5113894;28;20046;-76
2022/09/18 05:40:40;;;;;;;11.43;1.75;;;;;;;;;;5117245;28;20040;-76
2022/09/18 05:43:06;;;;;;;10.77;1.48;;;;;;;;;;5101726;28;20517;-76
2022/09/18 05:45:33;;;;;;;12.23;1.60;;;;;;;;;;5102211;28;20040;-75
2022/09/18 05:48:04;;;;;;;11.70;1.52;;;;;;;;;;5113742;28;20065;-76
2022/09/18 05:50:31;;;;;;;9.20;1.20;;;;;;;;;;5111227;28;20040;-76
2022/09/18 05:53:01;;;;;;;11.48;1.25;;;;;;;;;;5115140;28;20048;-76
2022/09/18 05:55:28;;;;;;;9.68;1.75;;;;;;;;;;5112719;28;20039;-76
2022/09/18 05:57:55;;;;;;;9.25;1.33;;;;;;;;;;5112634;28;20035;-75
2022/09/18 06:00:21;;;;;;;11.70;1.60;;;;;;;;;;5108365;28;20055;-75
2022/09/18 06:02:54;;;;;;;10.00;1.40;;;;;;;;;;5102265;28;20092;-75
2022/09/18 06:05:21;;;;;;;11.68;1.42;;;;;;;;;;5102217;28;20501;-76
2022/09/18 06:07:47;;;;;;;9.48;1.17;;;;;;;;;;5097714;28;20040;-76
2022/09/18 06:10:13;;;;;;;6.28;1.10;;;;;;;;;;5113444;28;20036;-76
2022/09/18 06:12:39;;;;;;;10.65;1.42;;;;;;;;;;5113509;28;20055;-75
2022/09/18 06:15:05;;;;;;;10.63;1.40;;;;;;;;;;5110737;28;20044;-76
2022/09/18 06:17:31;;;;;;;6.70;1.25;;;;;;;;;;5097512;28;20058;-76
2022/09/18 06:19:58;;;;;;;9.05;1.20;;;;;;;;;;5109639;28;20040;-76
2022/09/18 06:22:25;;;;;;;6.65;0.93;;;;;;;;;;5099519;28;20044;-76
2022/09/18 06:24:51;;;;;;;12.15;1.70;;;;;;;;;;5108082;28;20128;-76
2022/09/18 06:27:17;;;;;;;6.65;1.02;;;;;;;;;;5105222;28;20458;-76
2022/09/18 06:29:43;;;;;;;7.22;1.25;;;;;;;;;;5109298;28;20051;-76
2022/09/18 06:32:09;;;;;;;7.72;1.23;;;;;;;;;;5097473;28;20040;-76
2022/09/18 06:34:35;;;;;;;8.70;1.33;;;;;;;;;;5107048;28;20417;-76
2022/09/18 06:37:02;;;;;;;7.15;1.35;;;;;;;;;;5108346;28;20551;-76
2022/09/18 06:39:28;;;;;;;7.30;1.20;;;;;;;;;;5111661;28;20123;-76
2022/09/18 06:41:54;;;;;;;9.10;1.38;;;;;;;;;;5109124;28;20039;-76
2022/09/18 06:44:20;;;;;;;7.00;1.20;;;;;;;;;;5110532;28;20067;-75
2022/09/18 06:46:46;;;;;;;8.38;1.40;;;;;;;;;;5104193;28;20436;-75
2022/09/18 06:49:13;;;;;;;7.45;1.10;;;;;;;;;;5100785;28;20047;-75
2022/09/18 06:51:39;;;;;;;8.63;1.23;;;;;;;;;;5115477;28;20150;-76
2022/09/18 06:54:05;;;;;;;10.52;1.13;;;;;;;;;;5114202;28;20077;-75
2022/09/18 06:56:31;;;;;;;9.40;1.38;;;;;;;;;;5115880;28;20044;-75
2022/09/18 06:58:57;;;;;;;9.60;1.10;;;;;;;;;;5113766;28;20087;-75
2022/09/18 07:01:23;;;;;;;7.55;1.20;;;;;;;;;;5106481;28;20044;-75
2022/09/18 07:03:50;;;;;;;8.10;1.10;;;;;;;;;;5104710;28;20046;-76
2022/09/18 07:06:16;;;;;;;8.65;1.10;;;;;;;;;;5105333;28;20080;-75
2022/09/18 07:08:42;;;;;;;8.70;1.13;;;;;;;;;;5104469;28;20047;-75
2022/09/18 07:11:08;;;;;;;6.90;1.00;;;;;;;;;;5112264;28;20032;-75
2022/09/18 07:13:36;;;;;;;10.55;1.50;;;;;;;;;;5110991;28;20075;-75
2022/09/18 07:16:02;;;;;;;6.80;0.90;;;;;;;;;;5110021;28;20434;-75
2022/09/18 07:18:28;;;;;;;8.88;1.02;;;;;;;;;;5106637;28;20105;-75
2022/09/18 07:20:54;;;;;;;8.60;1.08;;;;;;;;;;5108216;27;20039;-75
2022/09/18 07:23:20;;;;;;;8.10;1.27;;;;;;;;;;5117736;27;20082;-75
2022/09/18 07:25:46;;;;;;;9.05;1.33;;;;;;;;;;5109455;28;20376;-75
2022/09/18 07:28:13;;;;;;;8.23;1.42;;;;;;;;;;5111740;28;20047;-75
2022/09/18 07:30:39;;;;;;;11.13;1.40;;;;;;;;;;5105707;28;20072;-75
2022/09/18 07:33:06;;;;;;;6.82;1.17;;;;;;;;;;5096690;28;20044;-75
2022/09/18 07:35:32;;;;;;;11.00;1.65;;;;;;;;;;5102080;28;20046;-75
2022/09/18 07:38:03;;;;;;;10.30;1.60;;;;;;;;;;5109859;28;20201;-75
2022/09/18 07:40:30;;;;;;;9.80;1.55;;;;;;;;;;5112399;28;20418;-75
2022/09/18 07:42:59;;;;;;;8.60;1.30;;;;;;;;;;5117170;28;20046;-75
2022/09/18 07:45:25;;;;;;;6.70;1.30;;;;;;;;;;5116571;28;20134;-75
2022/09/18 07:47:51;;;;;;;8.35;1.17;;;;;;;;;;5105683;28;20063;-75
2022/09/18 07:50:17;;;;;;;7.45;1.23;;;;;;;;;;5117367;28;20067;-76
2022/09/18 07:52:49;;;;;;;15.70;1.70;;;;;;;;;;5109321;28;20542;-75
2022/09/18 07:55:18;;;;;;;6.93;1.08;;;;;;;;;;5116275;28;20043;-75
2022/09/18 07:57:44;;;;;;;9.82;1.20;;;;;;;;;;5117390;28;20043;-75
2022/09/18 08:00:10;;;;;;;7.53;1.00;;;;;;;;;;5114536;28;20096;-75
2022/09/18 08:02:36;;;;;;;10.13;1.30;;;;;;;;;;5111303;28;20044;-75
2022/09/18 08:05:02;;;;;;;8.27;1.10;;;;;;;;;;5112787;28;20379;-75
2022/09/18 08:07:28;;;;;;;8.82;1.30;;;;;;;;;;5113515;28;20104;-75
2022/09/18 08:09:54;;;;;;;10.32;1.42;;;;;;;;;;5112074;28;20048;-75
2022/09/18 08:12:20;;;;;;;6.60;1.27;;;;;;;;;;5102311;28;20125;-75
2022/09/18 08:14:46;;;;;;;13.02;1.75;;;;;;;;;;5109197;28;20104;-75
2022/09/18 08:17:12;;;;;;;7.00;1.35;;;;;;;;;;5099589;28;20044;-75
2022/09/18 08:19:38;;;;;;;8.48;1.30;;;;;;;;;;5112410;28;20043;-75
2022/09/18 08:22:04;;;;;;;7.95;1.45;;;;;;;;;;5112535;28;20424;-75
2022/09/18 08:24:30;;;;;;;8.88;1.20;;;;;;;;;;5113121;28;20044;-75
2022/09/18 08:27:02;;;;;;;11.38;1.25;;;;;;;;;;5109297;28;20051;-75
2022/09/18 08:29:28;;;;;;;6.53;1.10;;;;;;;;;;5105910;28;20051;-75
2022/09/18 08:31:54;;;;;;;10.40;1.45;;;;;;;;;;5108960;28;20052;-75
2022/09/18 08:34:20;;;;;;;8.88;1.40;;;;;;;;;;5092241;28;20185;-75
2022/09/18 08:36:46;;;;;;;9.30;1.50;;;;;;;;;;5090206;28;20574;-75
2022/09/18 08:39:12;;;;;;;8.15;1.20;;;;;;;;;;5106604;28;20044;-75
2022/09/18 08:41:38;;;;;;;10.27;1.50;;;;;;;;;;5097143;28;20048;-75
2022/09/18 08:44:34;;;;;;;7.93;1.30;;;;;;;;;;5099922;28;20525;-75
2022/09/18 08:47:00;;;;;;;6.05;1.10;;;;;;;;;;5097659;28;20161;-75
2022/09/18 08:49:35;;;;;;;8.35;1.30;;;;;;;;;;5113516;28;20452;-75
2022/09/18 08:52:04;;;;;;;7.72;1.00;;;;;;;;;;5113150;28;20051;-75
2022/09/18 08:54:43;;;;;;;8.55;1.00;;;;;;;;;;5111652;28;20059;-75
2022/09/18 08:57:15;;;;;;;7.70;1.00;;;;;;;;;;5112532;28;20039;-75
2022/09/18 08:59:45;;;;;;;6.28;1.13;;;;;;;;;;5112659;28;20498;-75
2022/09/18 09:02:31;;;;;;;6.05;0.98;;;;;;;;;;5110850;28;20081;-75
2022/09/18 09:04:58;;;;;;;6.07;0.95;;;;;;;;;;5111165;28;20135;-75
2022/09/18 09:07:29;;;;;;;7.90;1.20;;;;;;;;;;5098515;28;20090;-75
2022/09/18 09:10:03;;;;;;;8.82;1.27;;;;;;;;;;5094225;28;20048;-76
2022/09/18 09:12:44;;;;;;;7.20;1.10;;;;;;;;;;5109074;28;20047;-76
2022/09/18 09:15:13;;;;;;;9.52;1.20;;;;;;;;;;5102817;28;20047;-76
2022/09/18 09:17:41;;;;;;;7.28;1.25;;;;;;;;;;5110616;28;20069;-75
2022/09/18 09:20:17;;;;;;;5.47;0.90;;;;;;;;;;5111132;28;20516;-76
2022/09/18 09:22:51;;;;;;;7.70;1.10;;;;;;;;;;5107750;28;20054;-76
2022/09/18 09:25:23;;;;;;;6.30;1.20;;;;;;;;;;5108555;28;20059;-77
2022/09/18 09:27:55;;;;;;;6.40;1.00;;;;;;;;;;5109868;28;20039;-76
2022/09/18 09:30:22;;;;;;;6.32;1.08;;;;;;;;;;5109281;28;20092;-76
2022/09/18 09:32:51;;;;;;;7.00;1.23;;;;;;;;;;5097390;28;20047;-76
2022/09/18 09:35:36;;;;;;;7.95;1.27;;;;;;;;;;5100564;28;20047;-76
2022/09/18 09:38:16;;;;;;;6.65;1.17;;;;;;;;;;5099339;28;20040;-76
2022/09/18 09:40:47;;;;;;;6.57;0.95;;;;;;;;;;5097640;28;20486;-75
2022/09/18 09:43:24;;;;;;;6.00;0.95;;;;;;;;;;5109526;28;20063;-76
2022/09/18 09:45:52;;;;;;;6.40;1.15;;;;;;;;;;5107523;28;20509;-75
2022/09/18 09:48:30;;;;;;;5.60;1.00;;;;;;;;;;5104144;28;20043;-76
2022/09/18 09:50:58;;;;;;;8.40;1.10;;;;;;;;;;5113390;28;20563;-75
2022/09/18 09:53:26;;;;;;;9.30;1.58;;;;;;;;;;5114665;28;20048;-76
2022/09/18 09:56:00;;;;;;;8.55;1.10;;;;;;;;;;5108544;28;20043;-76
2022/09/18 09:58:29;;;;;;;6.82;1.10;;;;;;;;;;5115186;28;20137;-76
2022/09/18 10:01:34;;;;;;;8.23;1.20;;;;;;;;;;5105618;28;20050;-76
2022/09/18 10:04:06;;;;;;;5.88;1.00;;;;;;;;;;5038123;28;20065;-76
2022/09/18 10:06:49;;;;;;;7.47;1.33;;;;;;;;;;5035292;28;20053;-75
2022/09/18 10:09:15;;;;;;;5.90;1.17;;;;;;;;;;5051110;28;20058;-75
2022/09/18 10:11:42;;;;;;;8.73;1.30;;;;;;;;;;5053979;28;20076;-75
2022/09/18 10:14:14;;;;;;;5.95;1.10;;;;;;;;;;5040573;28;20048;-75
2022/09/18 10:16:43;;;;;;;6.40;1.10;;;;;;;;;;5044867;28;20057;-76
2022/09/18 10:19:15;;;;;;;7.28;1.25;;;;;;;;;;5033588;28;20042;-76
2022/09/18 10:21:41;;;;;;;6.88;1.40;;;;;;;;;;5032494;28;20049;-76
2022/09/18 10:24:13;;;;;;;5.63;1.00;;;;;;;;;;5042924;28;20102;-76
2022/09/18 10:26:57;;;;;;;6.43;1.13;;;;;;;;;;5058589;28;20132;-76
2022/09/18 10:29:23;;;;;;;10.60;1.45;;;;;;;;;;5046938;28;20050;-76
2022/09/18 10:31:50;;;;;;;8.18;1.58;;;;;;;;;;5067865;28;20041;-76
2022/09/18 10:34:32;;;;;;;7.53;1.15;;;;;;;;;;5051777;28;20052;-76
2022/09/18 10:36:58;;;;;;;6.03;1.00;;;;;;;;;;5103544;28;20040;-76
2022/09/18 10:39:28;;;;;;;11.15;1.48;;;;;;;;;;5115304;28;20039;-76
2022/09/18 10:42:13;;;;;;;6.15;1.05;;;;;;;;;;5104457;28;20040;-76
2022/09/18 10:44:40;;;;;;;7.65;1.35;;;;;;;;;;5103075;28;20116;-76
2022/09/18 10:47:09;;;;;;;7.93;1.25;;;;;;;;;;5115919;28;20044;-76
2022/09/18 10:49:39;;;;;;;5.65;1.00;;;;;;;;;;5115001;28;20120;-76
2022/09/18 10:52:17;;;;;;;6.97;1.15;;;;;;;;;;5115579;28;20077;-76
2022/09/18 10:55:03;;;;;;;8.30;1.17;;;;;;;;;;5113404;28;20097;-76
2022/09/18 10:57:31;;;;;;;8.05;1.48;;;;;;;;;;5109932;28;20050;-76
2022/09/18 10:59:57;;;;;;;9.68;1.52;;;;;;;;;;5104689;28;20058;-76
2022/09/18 11:02:25;;;;;;;9.05;1.35;;;;;;;;;;5120572;28;20071;-77
2022/09/18 11:04:52;;;;;;;7.85;1.33;;;;;;;;;;5120010;28;20104;-77
2022/09/18 11:07:19;;;;;;;7.75;1.17;;;;;;;;;;5115934;28;20383;-77
2022/09/18 11:09:46;;;;;;;8.73;1.13;;;;;;;;;;5104055;28;20123;-77
2022/09/18 11:12:17;;;;;;;6.20;1.00;;;;;;;;;;5110448;28;21566;-76
2022/09/18 11:14:46;;;;;;;9.65;1.23;;;;;;;;;;5115128;28;20048;-76
2022/09/18 11:17:24;;;;;;;5.90;1.08;;;;;;;;;;5081913;28;20085;-76
2022/09/18 11:19:51;;;;;;;8.77;1.10;;;;;;;;;;5105564;28;20047;-76
2022/09/18 11:22:35;;;;;;;9.00;1.58;;;;;;;;;;5114309;28;20103;-73
2022/09/18 11:25:13;;;;;;;9.38;1.40;;;;;;;;;;5114591;28;20043;-75
2022/09/18 11:27:59;;;;;;;8.52;1.20;;;;;;;;;;5111691;28;20051;-75
2022/09/18 11:30:30;;;;;;;10.18;2.13;;;;;;;;;;5114937;28;20048;-75
2022/09/18 11:32:59;;;;;;;7.38;1.35;;;;;;;;;;5108295;28;20055;-75
2022/09/18 11:35:26;;;;;;;8.68;1.25;;;;;;;;;;5108457;28;20044;-75
2022/09/18 11:37:54;;;;;;;9.82;1.25;;;;;;;;;;5106018;28;20111;-75
2022/09/18 11:40:20;;;;;;;10.07;1.42;;;;;;;;;;5105286;28;20632;-75
2022/09/18 11:42:47;;;;;;;7.50;1.20;;;;;;;;;;5109008;28;20042;-75
2022/09/18 11:45:22;;;;;;;7.55;1.20;;;;;;;;;;5108895;28;20059;-74
2022/09/18 11:47:56;;;;;;;12.23;1.65;;;;;;;;;;5104179;28;20040;-74
2022/09/18 11:50:24;;;;;;;8.70;1.30;;;;;;;;;;5103140;28;20040;-75
2022/09/18 11:52:54;;;;;;;9.88;1.20;;;;;;;;;;5104795;28;20128;-74
2022/09/18 11:55:41;;;;;;;10.30;1.40;;;;;;;;;;5112273;28;20043;-75
2022/09/18 11:58:10;;;;;;;10.00;1.48;;;;;;;;;;5125230;28;20152;-74
2022/09/18 12:00:41;;;;;;;7.13;1.25;;;;;;;;;;5126072;28;20488;-75
2022/09/18 12:03:15;;;;;;;9.00;1.50;;;;;;;;;;5120118;28;20043;-75
2022/09/18 12:05:50;;;;;;;9.38;1.33;;;;;;;;;;5122580;28;20044;-74
2022/09/18 12:08:36;;;;;;;9.23;1.23;;;;;;;;;;5117766;28;20099;-74
2022/09/18 12:11:14;;;;;;;10.65;1.20;;;;;;;;;;5114440;28;20083;-74
2022/09/18 12:13:48;;;;;;;9.93;1.40;;;;;;;;;;5122863;28;20534;-74
2022/09/18 12:16:17;;;;;;;9.25;1.42;;;;;;;;;;5125710;28;20047;-74
2022/09/18 12:18:57;;;;;;;8.48;1.45;;;;;;;;;;5127542;28;20040;-74
2022/09/18 12:21:42;;;;;;;9.40;1.38;;;;;;;;;;5128620;28;20043;-74
2022/09/18 12:24:15;;;;;;;11.88;1.65;;;;;;;;;;5128347;28;20043;-74
2022/09/18 12:26:45;;;;;;;9.40;1.45;;;;;;;;;;5129646;28;20047;-74
2022/09/18 12:29:22;;;;;;;10.80;1.42;;;;;;;;;;5127579;28;20071;-74
2022/09/18 12:31:48;;;;;;;11.55;1.70;;;;;;;;;;5127309;28;20044;-74
2022/09/18 12:34:14;;;;;;;10.70;1.70;;;;;;;;;;5128275;28;20070;-74
2022/09/18 12:36:46;;;;;;;13.60;1.70;;;;;;;;;;5129520;28;20425;-74
2022/09/18 12:39:12;;;;;;;7.22;1.48;;;;;;;;;;5129970;28;20386;-74
2022/09/18 12:41:45;;;;;;;8.27;1.65;;;;;;;;;;5130904;28;20065;-74
2022/09/18 12:44:11;;;;;;;11.93;1.60;;;;;;;;;;5129501;28;20092;-74
2022/09/18 12:46:46;;;;;;;13.38;1.77;;;;;;;;;;5129438;28;20051;-74
2022/09/18 12:49:15;;;;;;;12.05;2.05;;;;;;;;;;5129774;28;20055;-74
2022/09/18 12:51:46;;;;;;;11.25;1.70;;;;;;;;;;5125287;28;20058;-74
2022/09/18 12:54:12;;;;;;;;;;;;;;;;;;5130429;28;20099;-74
2022/09/18 12:56:41;;;;;;;10.73;1.65;;;;;;;;;;5130509;28;19961;-74
2022/09/18 12:59:20;;;;;;;8.80;1.33;;;;;;;;;;5131924;28;20040;-74
2022/09/18 13:01:47;;;;;;;11.35;1.75;;;;;;;;;;5131949;28;20036;-75
2022/09/18 13:04:21;;;;;;;10.57;1.55;;;;;;;;;;5132075;28;20082;-74
2022/09/18 13:06:50;;;;;;;11.90;1.90;;;;;;;;;;5131593;28;20099;-74
2022/09/18 13:09:19;;;;;;;14.45;1.60;;;;;;;;;;5136635;28;20058;-74
2022/09/18 13:11:48;;;;;;;11.40;1.77;;;;;;;;;;5135446;28;20343;-75
2022/09/18 13:14:19;;;;;;;8.88;1.55;;;;;;;;;;5135902;28;20047;-74
2022/09/18 13:17:05;;;;;;;12.00;1.73;;;;;;;;;;5137149;28;20107;-74
2022/09/18 13:19:32;;;;;;;9.25;1.40;;;;;;;;;;5135123;28;20203;-75
2022/09/18 13:22:02;;;;;;;10.07;1.60;;;;;;;;;;5132174;28;20047;-75
2022/09/18 13:24:33;;;;;;;11.45;1.55;;;;;;;;;;5138396;28;20019;-75
2022/09/18 13:29:48;;;;;;;9.50;1.30;;;;;;;;;;5053130;28;20052;-73
2022/09/18 13:32:15;;;;;;;10.05;1.35;;;;;;;;;;5054843;28;20059;-73
2022/09/18 13:34:47;;;;;;;12.35;1.73;;;;;;;;;;5049692;28;20077;-74
2022/09/18 13:37:13;;;;;;;;;;;;;;;;;;5052577;28;20079;-74
2022/09/18 13:39:39;;;;;;;13.93;1.80;;;;;;;;;;5054914;28;19920;-74
2022/09/18 13:42:05;;;;;;;10.55;2.00;;;;;;;;;;5036939;28;20076;-74
2022/09/18 13:44:34;;;;;;;9.52;1.70;;;;;;;;;;5054777;28;20041;-74
2022/09/18 13:47:10;;;;;;;11.98;1.92;;;;;;;;;;5054897;28;20040;-74
2022/09/18 13:49:56;;;;;;;10.80;1.58;;;;;;;;;;5054373;28;20466;-74
2022/09/18 13:52:40;;;;;;;10.20;1.23;;;;;;;;;;5053894;28;20048;-74
2022/09/18 13:55:12;;;;;;;12.70;1.55;;;;;;;;;;5054175;28;20056;-74
2022/09/18 13:57:38;;;;;;;12.18;1.50;;;;;;;;;;5036300;28;20072;-74
2022/09/18 14:00:20;;;;;;;7.88;1.30;;;;;;;;;;5054112;28;20490;-74
2022/09/18 14:02:46;;;;;;;11.27;1.70;;;;;;;;;;5054290;28;20068;-74
2022/09/18 14:05:21;;;;;;;9.05;1.40;;;;;;;;;;5053396;28;20089;-74
2022/09/18 14:07:51;;;;;;;11.85;1.42;;;;;;;;;;5053858;28;20518;-74
2022/09/18 14:10:22;;;;;;;8.77;1.77;;;;;;;;;;5052923;28;20045;-73
2022/09/18 14:12:48;;;;;;;;;;;;;;;;;;5054507;28;20083;-72
2022/09/18 14:15:20;;;;;;;5.72;0.70;;;;;;;;;;5053273;28;20350;-72
2022/09/18 14:18:05;;;;;;;3.70;0.60;;;;;;;;;;5035081;28;20059;-72
2022/09/18 14:20:32;;;;;;;4.07;0.80;;;;;;;;;;5053286;28;20052;-72
2022/09/18 14:23:18;;;;;;;4.32;0.75;;;;;;;;;;5053740;28;20500;-73
2022/09/18 14:25:45;;;;;;;9.60;1.10;;;;;;;;;;5053633;28;20052;-73
2022/09/18 14:28:13;;;;;;;6.45;0.95;;;;;;;;;;5053471;28;20128;-73
2022/09/18 14:30:39;;;;;;;7.03;1.10;;;;;;;;;;5053812;28;20049;-73
2022/09/18 14:33:10;;;;;;;7.93;0.80;;;;;;;;;;5053044;28;20090;-72
2022/09/18 14:35:38;;;;;;;7.65;1.10;;;;;;;;;;5035886;28;20045;-72
2022/09/18 14:38:15;;;;;;;6.25;1.05;;;;;;;;;;5053583;28;20052;-72
2022/09/18 14:40:41;;;;;;;7.95;1.27;;;;;;;;;;5053321;28;20101;-73
2022/09/18 14:43:14;;;;;;;7.22;1.20;;;;;;;;;;5053540;28;20083;-73
2022/09/18 14:45:41;;;;;;;11.30;1.30;;;;;;;;;;5053005;28;20392;-73
2022/09/18 14:48:45;;;;;;;9.63;1.40;;;;;;;;;;5028907;28;20120;-73
2022/09/18 14:51:20;;;;;;;6.22;1.10;;;;;;;;;;4991185;28;20081;-73
2022/09/18 14:53:51;;;;;;;7.25;1.35;;;;;;;;;;5011242;28;20049;-73
2022/09/18 14:56:25;;;;;;;8.10;1.33;;;;;;;;;;5011393;28;20054;-72